Time;durP1;ratioP1;P1;durP2;ratioP2;P2;SDS_P1;SDS_P2;PMS_P1;PMS_P2;Temp;Humidity;BMP_temperature;BMP_pressure;BME280_temperature;BME280_humidity;BME280_pressure;Samples;Min_cycle;Max_cycle;Signal;HPM_P1;HPM_P2
2022/12/24 00:02:02;;;;;;;;;;;;;;;15.05;47.86;99276.44;4937825;27;121343;-65
2022/12/24 00:04:27;;;;;;;;;;;;;;;15.07;47.63;99273.38;4945756;28;116302;-66
2022/12/24 00:06:53;;;;;;;;;;;;;;;15.05;47.67;99265.59;4962244;28;98133;-66
2022/12/24 00:09:19;;;;;;;;;;;;;;;15.04;47.76;99274.81;4943292;28;126489;-68
2022/12/24 00:11:45;;;;;;;;;;;;;;;15.04;47.71;99277.53;4926209;28;121984;-65
2022/12/24 00:14:11;;;;;;;;;;;;;;;15.02;47.57;99265.44;4942138;28;128261;-70
2022/12/24 00:16:37;;;;;;;;;;;;;;;15.01;47.78;99280.91;4948921;28;127152;-70
2022/12/24 00:19:03;;;;;;;;;;;;;;;14.98;47.79;99270.72;4942184;28;127642;-66
2022/12/24 00:21:29;;;;;;;;;;;;;;;15.00;47.45;99276.59;4941447;28;120133;-65
2022/12/24 00:23:55;;;;;;;;;;;;;;;14.99;47.62;99275.00;4957919;28;128117;-68
2022/12/24 00:26:20;;;;;;;;;;;;;;;14.98;47.82;99285.06;4940994;28;127409;-66
2022/12/24 00:28:46;;;;;;;;;;;;;;;14.97;47.52;99274.53;4958904;28;127763;-68
2022/12/24 00:31:15;;;;;;;;;;;;;;;14.96;47.67;99278.38;4929222;28;124320;-69
2022/12/24 00:33:41;;;;;;;;;;;;;;;14.96;47.53;99287.31;4944525;28;109197;-68
2022/12/24 00:36:07;;;;;;;;;;;;;;;14.95;47.60;99288.44;4942739;28;99184;-66
2022/12/24 00:38:33;;;;;;;;;;;;;;;14.94;47.55;99286.84;4958257;28;98191;-68
2022/12/24 00:41:02;;;;;;;;;;;;;;;14.94;47.84;99297.69;4940871;28;122994;-70
2022/12/24 00:43:28;;;;;;;;;;;;;;;14.94;47.69;99296.91;4959192;28;98618;-67
2022/12/24 00:45:54;;;;;;;;;;;;;;;14.94;47.62;99300.41;4975035;28;98327;-66
2022/12/24 00:48:21;;;;;;;;;;;;;;;14.94;47.77;99305.84;4961524;28;98031;-66
2022/12/24 00:50:48;;;;;;;;;;;;;;;14.94;47.56;99302.34;4975255;28;98368;-66
2022/12/24 00:53:14;;;;;;;;;;;;;;;14.94;47.61;99303.13;4928755;28;117545;-65
2022/12/24 00:55:40;;;;;;;;;;;;;;;14.94;47.70;99316.69;4930176;28;99253;-69
2022/12/24 00:58:06;;;;;;;;;;;;;;;14.94;47.78;99310.47;4957753;28;127913;-68
2022/12/24 01:00:31;;;;;;;;;;;;;;;14.93;47.63;99320.53;4958658;28;122404;-65
2022/12/24 01:02:57;;;;;;;;;;;;;;;14.94;47.94;99319.41;4943438;28;128582;-68
2022/12/24 01:05:23;;;;;;;;;;;;;;;14.94;47.76;99322.13;4942379;28;127414;-68
2022/12/24 01:07:49;;;;;;;;;;;;;;;14.96;47.94;99332.63;4925414;28;97848;-69
2022/12/24 01:10:17;;;;;;;;;;;;;;;14.95;47.83;99334.56;4940748;28;99376;-69
2022/12/24 01:12:43;;;;;;;;;;;;;;;14.98;47.81;99327.69;4945411;28;98192;-66
2022/12/24 01:15:09;;;;;;;;;;;;;;;14.97;47.82;99326.06;4942537;28;123702;-66
2022/12/24 01:17:35;;;;;;;;;;;;;;;14.98;47.72;99324.97;4972330;28;99338;-66
2022/12/24 01:20:03;;;;;;;;;;;;;;;15.00;47.80;99332.78;4943015;28;123285;-69
2022/12/24 01:22:28;;;;;;;;;;;;;;;15.01;47.57;99340.59;4944173;28;122085;-66
2022/12/24 01:24:54;;;;;;;;;;;;;;;15.02;47.79;99339.50;4961044;28;128314;-66
2022/12/24 01:27:20;;;;;;;;;;;;;;;15.02;47.85;99342.22;4924902;28;99070;-66
2022/12/24 01:29:46;;;;;;;;;;;;;;;15.04;47.65;99347.31;4941437;28;98021;-68
2022/12/24 01:32:12;;;;;;;;;;;;;;;15.04;47.85;99341.88;4958557;28;126854;-66
2022/12/24 01:34:38;;;;;;;;;;;;;;;15.05;47.66;99348.88;4946655;28;128546;-69
2022/12/24 01:37:04;;;;;;;;;;;;;;;15.07;47.83;99362.94;4941050;28;127138;-66
2022/12/24 01:39:30;;;;;;;;;;;;;;;15.07;47.69;99363.72;4957731;28;120620;-66
2022/12/24 01:44:42;;;;;;;;;;;;;;;15.09;47.66;99372.38;4936096;28;98359;-66
2022/12/24 01:47:15;;;;;;;;;;;;;;;15.10;47.70;99371.25;4921225;28;99176;-66
2022/12/24 01:49:44;;;;;;;;;;;;;;;15.11;47.84;99382.88;4925618;28;98103;-67
2022/12/24 01:52:18;;;;;;;;;;;;;;;15.11;47.55;99380.16;4922588;28;99391;-69
2022/12/24 01:54:49;;;;;;;;;;;;;;;15.12;47.61;99398.03;4950161;28;122085;-66
2022/12/24 01:57:26;;;;;;;;;;;;;;;15.13;47.57;99397.75;4938223;28;101436;-66
2022/12/24 01:59:54;;;;;;;;;;;;;;;15.14;47.75;99393.91;4927392;28;99043;-66
2022/12/24 02:02:20;;;;;;;;;;;;;;;15.14;47.81;99399.31;4923745;28;98505;-69
2022/12/24 02:04:56;;;;;;;;;;;;;;;15.15;47.84;99406.34;4922642;28;127771;-69
2022/12/24 02:07:22;;;;;;;;;;;;;;;15.17;47.60;99395.19;4920919;28;124522;-69
2022/12/24 02:09:48;;;;;;;;;;;;;;;15.17;47.45;99397.88;4926258;28;122672;-69
2022/12/24 02:12:14;;;;;;;;;;;;;;;15.17;47.65;99401.41;4927042;28;127397;-66
2022/12/24 02:14:40;;;;;;;;;;;;;;;15.18;47.58;99415.75;4922411;28;129005;-69
2022/12/24 02:17:36;;;;;;;;;;;;;;;15.18;47.70;99416.56;4936910;28;97940;-69
2022/12/24 02:20:36;;;;;;;;;;;;;;;15.19;47.50;99420.06;4933741;28;109247;-68
2022/12/24 02:23:25;;;;;;;;;;;;;;;15.16;47.69;99424.22;4924146;28;98122;-68
2022/12/24 02:26:27;;;;;;;;;;;;;;;15.14;47.45;99429.19;4942264;28;98576;-66
2022/12/24 02:29:50;;;;;;;;;;;;;;;15.12;47.61;99441.47;4921261;28;98174;-66
2022/12/24 02:33:00;;;;;;;;;;;;;;;15.10;47.76;99430.16;4855193;28;98566;-69
2022/12/24 02:35:45;;;;;;;;;;;;;;;15.08;47.91;99435.88;4874296;28;99600;-70
2022/12/24 02:38:21;;;;;;;;;;;;;;;15.07;47.69;99434.28;4929933;28;104631;-68
2022/12/24 02:40:50;;;;;;;;;;;;;;;15.06;47.79;99440.84;4940037;28;119198;-68
2022/12/24 02:43:20;;;;;;;;;;;;;;;15.06;47.69;99440.84;4924871;28;98038;-69
2022/12/24 02:45:50;;;;;;;;;;;;;;;15.06;47.84;99445.47;4956497;28;114966;-68
2022/12/24 02:48:16;;;;;;;;;;;;;;;15.05;47.92;99444.69;4952627;28;126029;-67
2022/12/24 02:51:02;;;;;;;;;;;;;;;15.05;47.67;99457.44;4938749;28;129982;-66
2022/12/24 02:53:29;;;;;;;;;;;;;;;15.05;47.81;99460.97;4940260;28;98542;-68
2022/12/24 02:56:17;;;;;;;;;;;;;;;15.06;47.72;99461.75;4942522;28;104184;-69
2022/12/24 02:58:52;;;;;;;;;;;;;;;15.05;47.87;99466.41;4959177;28;98600;-66
2022/12/24 03:01:54;;;;;;;;;;;;;;;15.06;47.86;99469.91;4972652;28;98239;-69
2022/12/24 03:04:40;;;;;;;;;;;;;;;15.07;47.62;99476.91;4944959;28;118338;-66
2022/12/24 03:07:15;;;;;;;;;;;;;;;15.06;47.77;99478.06;4955097;28;98045;-68
2022/12/24 03:10:00;;;;;;;;;;;;;;;15.06;47.84;99486.97;4953052;28;100060;-66
2022/12/24 03:12:47;;;;;;;;;;;;;;;15.08;47.99;99492.06;4956608;28;99645;-68
2022/12/24 03:15:14;;;;;;;;;;;;;;;15.06;47.84;99495.13;4955207;28;107391;-68
2022/12/24 03:17:40;;;;;;;;;;;;;;;15.06;47.64;99499.75;4959116;28;99527;-69
2022/12/24 03:20:07;;;;;;;;;;;;;;;15.07;47.94;99499.44;4939202;28;99571;-66
2022/12/24 03:22:33;;;;;;;;;;;;;;;15.08;47.72;99514.59;4942910;28;106901;-68
2022/12/24 03:25:00;;;;;;;;;;;;;;;15.07;47.75;99510.28;4941946;28;109737;-66
2022/12/24 03:27:27;;;;;;;;;;;;;;;15.08;47.61;99521.94;4956029;28;100949;-68
2022/12/24 03:29:53;;;;;;;;;;;;;;;15.08;47.86;99521.94;4941510;28;128626;-68
2022/12/24 03:32:28;;;;;;;;;;;;;;;15.07;47.75;99528.47;4935308;28;98095;-66
2022/12/24 03:34:54;;;;;;;;;;;;;;;15.09;47.54;99529.78;4958719;28;112703;-68
2022/12/24 03:37:20;;;;;;;;;;;;;;;15.09;47.70;99528.94;4955657;28;127070;-66
2022/12/24 03:39:46;;;;;;;;;;;;;;;15.09;47.82;99532.50;4962563;28;99376;-66
2022/12/24 03:42:12;;;;;;;;;;;;;;;15.10;47.83;99528.66;4909386;28;127131;-66
2022/12/24 03:44:38;;;;;;;;;;;;;;;15.10;47.55;99538.72;4920226;28;122450;-68
2022/12/24 03:47:04;;;;;;;;;;;;;;;15.11;47.66;99540.28;4922457;28;109526;-68
2022/12/24 03:49:30;;;;;;;;;;;;;;;15.10;47.90;99527.84;4922492;28;128380;-66
2022/12/24 03:51:56;;;;;;;;;;;;;;;15.11;47.69;99537.59;4939117;28;127714;-66
2022/12/24 03:54:22;;;;;;;;;;;;;;;15.11;47.92;99551.16;4925462;28;123984;-68
2022/12/24 03:56:48;;;;;;;;;;;;;;;15.11;48.05;99553.88;4925736;28;128139;-66
2022/12/24 03:59:14;;;;;;;;;;;;;;;15.11;47.73;99556.59;4908556;28;98039;-69
2022/12/24 04:01:40;;;;;;;;;;;;;;;15.11;47.62;99562.81;4929904;28;97920;-66
2022/12/24 04:04:05;;;;;;;;;;;;;;;15.12;47.76;99566.31;4939424;28;122630;-66
2022/12/24 04:06:31;;;;;;;;;;;;;;;15.12;47.76;99563.59;4925207;28;128705;-68
2022/12/24 04:09:03;;;;;;;;;;;;;;;15.13;48.00;99571.44;4923922;28;127216;-69
2022/12/24 04:11:30;;;;;;;;;;;;;;;15.12;47.95;99561.69;4927316;28;98027;-66
2022/12/24 04:13:55;;;;;;;;;;;;;;;15.12;47.72;99575.25;4942983;28;121160;-66
2022/12/24 04:16:21;;;;;;;;;;;;;;;15.13;47.88;99573.34;4922748;28;126396;-66
2022/12/24 04:18:47;;;;;;;;;;;;;;;15.13;47.75;99578.75;4909213;28;98050;-66
2022/12/24 04:21:13;;;;;;;;;;;;;;;15.13;47.66;99584.19;4929204;28;125644;-66
2022/12/24 04:23:40;;;;;;;;;;;;;;;15.13;47.94;99603.19;4927398;28;98059;-65
2022/12/24 04:26:07;;;;;;;;;;;;;;;15.14;47.90;99604.81;4924464;28;97978;-66
2022/12/24 04:28:33;;;;;;;;;;;;;;;15.13;47.92;99608.63;4910730;28;98024;-65
2022/12/24 04:31:00;;;;;;;;;;;;;;;15.14;47.92;99610.22;4936906;28;110672;-62
2022/12/24 04:33:26;;;;;;;;;;;;;;;15.14;48.00;99607.53;4939106;28;99441;-65
2022/12/24 04:35:51;;;;;;;;;;;;;;;15.15;47.62;99609.13;4939487;28;111248;-62
2022/12/24 04:38:17;;;;;;;;;;;;;;;15.13;47.85;99612.16;4921715;28;128998;-62
2022/12/24 04:40:43;;;;;;;;;;;;;;;15.13;47.73;99614.88;4943089;28;127628;-66
2022/12/24 04:43:09;;;;;;;;;;;;;;;15.13;47.95;99619.47;4955845;28;121801;-66
2022/12/24 04:45:35;;;;;;;;;;;;;;;15.12;47.73;99621.38;4956581;28;127786;-67
2022/12/24 04:48:01;;;;;;;;;;;;;;;15.12;48.02;99628.75;4927913;28;128174;-63
2022/12/24 04:50:27;;;;;;;;;;;;;;;15.12;47.75;99626.03;4959642;28;128587;-63
2022/12/24 04:52:53;;;;;;;;;;;;;;;15.10;47.93;99629.06;4955728;28;123656;-68
2022/12/24 04:55:19;;;;;;;;;;;;;;;15.11;47.73;99638.00;4959554;28;127593;-66
2022/12/24 04:57:45;;;;;;;;;;;;;;;15.10;47.76;99648.06;4944947;28;127571;-66
2022/12/24 05:00:11;;;;;;;;;;;;;;;15.10;47.84;99645.34;4958972;28;127619;-63
2022/12/24 05:02:37;;;;;;;;;;;;;;;15.10;47.99;99656.22;4961185;28;120345;-67
2022/12/24 05:05:03;;;;;;;;;;;;;;;15.09;48.00;99651.06;4957446;28;128653;-67
2022/12/24 05:07:29;;;;;;;;;;;;;;;15.09;47.93;99665.47;4942222;28;108347;-67
2022/12/24 05:09:55;;;;;;;;;;;;;;;15.08;47.94;99671.19;4943527;28;126693;-65
2022/12/24 05:12:21;;;;;;;;;;;;;;;15.09;47.96;99678.22;4939346;28;120867;-65
2022/12/24 05:14:46;;;;;;;;;;;;;;;15.08;47.48;99677.41;4954481;28;98464;-62
2022/12/24 05:17:12;;;;;;;;;;;;;;;15.08;47.93;99680.13;4958298;28;128668;-67
2022/12/24 05:19:38;;;;;;;;;;;;;;;15.08;47.69;99673.91;4975404;28;126654;-67
2022/12/24 05:27:33;;;;;;;;;;;;;;;15.07;47.79;99686.69;4949907;28;98046;-67
2022/12/24 05:29:59;;;;;;;;;;;;;;;15.07;47.96;99686.69;4956655;28;127899;-69
2022/12/24 05:32:25;;;;;;;;;;;;;;;15.07;48.06;99694.84;4958846;28;122400;-68
2022/12/24 05:34:51;;;;;;;;;;;;;;;15.08;47.81;99704.56;4949174;28;118353;-65
2022/12/24 05:37:17;;;;;;;;;;;;;;;15.06;48.05;99695.16;4958991;28;126832;-67
2022/12/24 05:39:43;;;;;;;;;;;;;;;15.06;48.04;99706.81;4962647;28;127680;-64
2022/12/24 05:42:09;;;;;;;;;;;;;;;15.06;47.79;99709.53;4908393;28;122647;-67
2022/12/24 05:44:35;;;;;;;;;;;;;;;15.07;47.76;99707.59;4922186;28;98710;-64
2022/12/24 05:47:01;;;;;;;;;;;;;;;15.08;47.86;99710.00;4925374;28;99808;-67
2022/12/24 05:49:27;;;;;;;;;;;;;;;15.08;47.75;99711.91;4924670;28;99903;-64
2022/12/24 05:51:53;;;;;;;;;;;;;;;15.07;47.86;99713.03;4920882;28;99189;-67
2022/12/24 05:54:19;;;;;;;;;;;;;;;15.10;47.92;99725.97;4921596;28;128158;-68
2022/12/24 05:56:45;;;;;;;;;;;;;;;15.10;47.95;99729.50;4916640;28;128188;-65
2022/12/24 05:59:11;;;;;;;;;;;;;;;15.09;47.91;99727.91;4934962;28;127361;-65
2022/12/24 06:01:37;;;;;;;;;;;;;;;15.10;47.99;99734.13;4945385;28;122525;-65
2022/12/24 06:04:03;;;;;;;;;;;;;;;15.10;47.95;99736.84;4938682;28;111129;-68
2022/12/24 06:06:29;;;;;;;;;;;;;;;15.11;48.12;99735.72;4934050;28;121393;-68
2022/12/24 06:08:55;;;;;;;;;;;;;;;15.10;48.00;99743.06;4920681;28;127406;-68
2022/12/24 06:11:23;;;;;;;;;;;;;;;15.16;47.99;99741.00;4923829;28;99687;-67
2022/12/24 06:13:49;;;;;;;;;;;;;;;15.24;47.85;99751.06;4937636;28;98301;-67
2022/12/24 06:16:16;;;;;;;;;;;;;;;15.32;47.76;99753.00;4932968;28;115374;-63
2022/12/24 06:18:42;;;;;;;;;;;;;;;15.37;48.11;99761.03;4950308;28;121269;-67
2022/12/24 06:21:08;;;;;;;;;;;;;;;15.44;47.86;99763.25;4917190;28;98178;-64
2022/12/24 06:23:36;;;;;;;;;;;;;;;15.46;48.04;99769.19;4919633;28;98476;-67
2022/12/24 06:26:02;;;;;;;;;;;;;;;15.51;47.97;99774.47;4933001;28;105857;-65
2022/12/24 06:28:29;;;;;;;;;;;;;;;15.54;47.80;99779.25;4916157;28;126589;-67
2022/12/24 06:30:55;;;;;;;;;;;;;;;15.56;48.03;99782.47;4918283;28;98356;-64
2022/12/24 06:33:21;;;;;;;;;;;;;;;15.58;47.78;99795.72;4934622;28;128144;-64
2022/12/24 06:35:47;;;;;;;;;;;;;;;15.58;47.83;99796.53;4919643;28;124606;-68
2022/12/24 06:38:14;;;;;;;;;;;;;;;15.60;47.94;99802.47;4916956;28;121797;-64
2022/12/24 06:40:40;;;;;;;;;;;;;;;15.62;47.77;99797.50;4925438;28;104248;-68
2022/12/24 06:43:06;;;;;;;;;;;;;;;15.64;48.05;99808.03;4921165;28;108597;-67
2022/12/24 06:45:32;;;;;;;;;;;;;;;15.62;47.91;99810.28;4935463;28;98550;-68
2022/12/24 06:47:59;;;;;;;;;;;;;;;15.63;47.99;99809.94;4934696;28;126943;-68
2022/12/24 06:50:24;;;;;;;;;;;;;;;15.63;47.98;99815.38;4919014;28;104240;-65
2022/12/24 06:52:50;;;;;;;;;;;;;;;15.62;47.82;99816.50;4935036;28;129127;-68
2022/12/24 06:55:16;;;;;;;;;;;;;;;15.64;47.86;99822.44;4930851;28;107270;-68
2022/12/24 06:57:42;;;;;;;;;;;;;;;15.63;48.03;99830.88;4917078;28;128023;-68
2022/12/24 07:00:09;;;;;;;;;;;;;;;15.63;47.89;99842.53;4920820;28;122695;-65
2022/12/24 07:02:35;;;;;;;;;;;;;;;15.61;48.02;99839.38;4934253;28;107114;-68
2022/12/24 07:05:00;;;;;;;;;;;;;;;15.61;47.93;99838.56;4917282;28;129005;-68
2022/12/24 07:07:26;;;;;;;;;;;;;;;15.61;47.99;99852.16;4914762;28;122121;-68
2022/12/24 07:09:52;;;;;;;;;;;;;;;15.60;48.08;99850.53;4920189;28;122820;-65
2022/12/24 07:12:18;;;;;;;;;;;;;;;15.59;47.84;99857.88;4919645;28;127593;-68
2022/12/24 07:14:44;;;;;;;;;;;;;;;15.60;47.96;99845.91;4930717;28;128347;-65
2022/12/24 07:17:10;;;;;;;;;;;;;;;15.60;48.05;99858.66;4915768;28;126555;-68
2022/12/24 07:19:36;;;;;;;;;;;;;;;15.60;47.90;99864.09;4898642;28;122749;-65
2022/12/24 07:22:02;;;;;;;;;;;;;;;15.59;47.81;99860.59;4934718;28;115231;-65
2022/12/24 07:24:28;;;;;;;;;;;;;;;15.59;47.84;99866.03;4937504;28;114843;-64
2022/12/24 07:26:54;;;;;;;;;;;;;;;15.58;47.98;99869.88;4936099;28;98298;-67
2022/12/24 07:29:20;;;;;;;;;;;;;;;15.56;48.05;99872.09;4901132;28;121476;-64
2022/12/24 07:31:46;;;;;;;;;;;;;;;15.57;47.99;99875.63;4915451;28;117894;-68
2022/12/24 07:34:12;;;;;;;;;;;;;;;15.56;47.68;99888.41;4934308;28;114171;-65
2022/12/24 07:36:38;;;;;;;;;;;;;;;15.55;47.86;99892.22;4919818;28;111754;-65
2022/12/24 07:39:04;;;;;;;;;;;;;;;15.55;47.90;99892.22;4904455;28;122103;-68
2022/12/24 07:41:30;;;;;;;;;;;;;;;15.55;48.03;99894.94;4915926;28;126030;-66
2022/12/24 07:43:56;;;;;;;;;;;;;;;15.55;48.09;99899.56;4932759;28;128224;-65
2022/12/24 07:46:21;;;;;;;;;;;;;;;15.54;48.08;99912.34;4915160;28;99466;-65
2022/12/24 07:48:47;;;;;;;;;;;;;;;15.54;48.00;99915.06;4932760;28;98321;-68
2022/12/24 07:51:13;;;;;;;;;;;;;;;15.54;47.88;99920.50;4899795;28;128468;-68
2022/12/24 07:53:46;;;;;;;;;;;;;;;15.53;47.88;99918.09;4918232;28;99492;-69
2022/12/24 07:56:13;;;;;;;;;;;;;;;15.54;47.80;99919.69;4911784;28;99480;-69
2022/12/24 07:58:39;;;;;;;;;;;;;;;15.54;48.03;99925.13;4917014;28;98297;-65
2022/12/24 08:01:05;;;;;;;;;;;;;;;15.54;47.97;99922.41;4949885;28;124734;-66
2022/12/24 08:03:31;;;;;;;;;;;;;;;15.53;48.02;99923.53;4919654;28;128624;-68
2022/12/24 08:05:57;;;;;;;;;;;;;;;15.53;47.98;99927.06;4915803;28;127283;-68
2022/12/24 08:08:23;;;;;;;;;;;;;;;15.55;47.93;99935.69;4916284;28;98774;-66
2022/12/24 08:10:49;;;;;;;;;;;;;;;15.55;47.72;99932.16;4918652;28;124765;-66
2022/12/24 08:13:15;;;;;;;;;;;;;;;15.54;47.74;99939.50;4900806;28;130388;-68
2022/12/24 08:15:41;;;;;;;;;;;;;;;15.55;47.90;99934.88;4915764;28;98071;-66
2022/12/24 08:18:07;;;;;;;;;;;;;;;15.56;47.72;99937.31;4914735;28;112746;-66
2022/12/24 08:20:33;;;;;;;;;;;;;;;15.56;47.87;99950.06;4915773;28;120393;-66
2022/12/24 08:22:59;;;;;;;;;;;;;;;15.57;47.87;99949.75;4915205;28;98673;-68
2022/12/24 08:25:25;;;;;;;;;;;;;;;15.58;47.89;99953.28;4919398;28;127115;-69
2022/12/24 08:27:51;;;;;;;;;;;;;;;15.59;47.72;99952.94;4920106;28;122282;-66
2022/12/24 08:30:17;;;;;;;;;;;;;;;15.60;47.91;99962.72;4916620;28;127409;-68
2022/12/24 08:32:43;;;;;;;;;;;;;;;15.60;47.85;99959.19;4934076;28;123504;-66
2022/12/24 08:35:09;;;;;;;;;;;;;;;15.59;47.79;99966.53;4921455;28;127741;-66
2022/12/24 08:37:35;;;;;;;;;;;;;;;15.60;47.89;99973.59;4934974;28;122222;-69
2022/12/24 08:40:01;;;;;;;;;;;;;;;15.61;47.75;99969.75;4936670;28;127789;-66
2022/12/24 08:42:27;;;;;;;;;;;;;;;15.63;47.80;99983.00;4933150;28;127089;-68
2022/12/24 08:44:53;;;;;;;;;;;;;;;15.63;47.75;99988.44;4956771;28;127159;-70
2022/12/24 08:47:19;;;;;;;;;;;;;;;15.65;47.69;99988.97;4937467;28;123276;-70
2022/12/24 08:49:44;;;;;;;;;;;;;;;15.68;47.72;99993.78;4967698;28;116257;-66
2022/12/24 08:52:10;;;;;;;;;;;;;;;15.68;47.79;99996.50;4954021;28;99772;-69
2022/12/24 08:54:36;;;;;;;;;;;;;;;15.72;47.89;100008.34;4956702;28;128994;-67
2022/12/24 08:57:02;;;;;;;;;;;;;;;15.75;47.83;100009.63;4939022;28;113366;-68
2022/12/24 08:59:28;;;;;;;;;;;;;;;15.80;47.57;100009.47;4960873;28;127928;-66
2022/12/24 09:01:54;;;;;;;;;;;;;;;15.88;47.65;100006.81;4957250;28;128165;-66
2022/12/24 09:04:20;;;;;;;;;;;;;;;15.99;47.36;100018.19;4954434;28;127667;-69
2022/12/24 09:06:46;;;;;;;;;;;;;;;16.17;47.18;100011.72;4939777;28;122469;-68
2022/12/24 09:09:12;;;;;;;;;;;;;;;16.43;46.99;100009.06;4935760;28;125911;-69
2022/12/24 09:11:38;;;;;;;;;;;;;;;16.57;46.98;100019.00;4938694;28;99493;-69
2022/12/24 09:14:04;;;;;;;;;;;;;;;16.77;46.68;100023.84;4955143;28;99519;-66
2022/12/24 09:16:30;;;;;;;;;;;;;;;16.86;46.87;100029.31;4940189;28;123188;-66
2022/12/24 09:18:56;;;;;;;;;;;;;;;16.95;46.81;100024.66;4919193;28;109149;-69
2022/12/24 09:21:22;;;;;;;;;;;;;;;17.20;46.48;100047.56;4927934;28;98398;-69
2022/12/24 09:23:48;;;;;;;;;;;;;;;17.23;46.60;100038.75;4052941;28;10000610;-70
2022/12/24 09:26:26;;;;;;;;;;;;;;;17.28;46.51;100048.69;4935184;28;99094;-67
2022/12/24 09:28:52;;;;;;;;;;;;;;;17.26;46.85;100050.94;4953491;28;127553;-68
2022/12/24 09:31:20;;;;;;;;;;;;;;;17.33;46.74;100054.78;4936847;28;119557;-67
2022/12/24 09:33:46;;;;;;;;;;;;;;;17.68;46.45;100057.41;4956479;28;98248;-70
2022/12/24 09:36:13;;;;;;;;;;;;;;;17.73;46.60;100061.91;4933369;28;99402;-69
2022/12/24 09:38:39;;;;;;;;;;;;;;;17.66;46.82;100067.84;4954970;28;98344;-67
2022/12/24 09:41:51;;;;;;;;;;;;;;;17.68;46.75;100065.59;4936095;28;98860;-66
2022/12/24 09:44:36;;;;;;;;;;;;;;;17.80;46.66;100070.41;4929830;28;99640;-70
2022/12/24 09:47:07;;;;;;;;;;;;;;;17.81;46.61;100069.31;4937851;28;115660;-66
2022/12/24 09:49:43;;;;;;;;;;;;;;;17.81;46.86;100083.72;4936230;28;99153;-69
2022/12/24 09:52:11;;;;;;;;;;;;;;;17.72;46.89;100085.63;4957437;28;98271;-68
2022/12/24 09:54:55;;;;;;;;;;;;;;;17.69;47.13;100097.19;4937027;28;98228;-68
2022/12/24 09:57:36;;;;;;;;;;;;;;;17.73;46.84;100110.97;4965406;28;127010;-66
2022/12/24 10:00:02;;;;;;;;;;;;;;;17.75;46.78;100117.72;4937496;28;99582;-66
2022/12/24 10:02:28;;;;;;;;;;;;;;;17.78;46.77;100113.56;4923836;28;98337;-69
2022/12/24 10:04:54;;;;;;;;;;;;;;;17.86;46.69;100110.00;4949083;28;126516;-69
2022/12/24 10:07:39;;;;;;;;;;;;;;;17.94;46.63;100119.28;4937787;28;99828;-67
2022/12/24 10:10:10;;;;;;;;;;;;;;;18.02;46.61;100127.44;4971913;28;98384;-69
2022/12/24 10:12:50;;;;;;;;;;;;;;;18.00;46.71;100123.44;4970130;28;99225;-66
2022/12/24 10:15:23;;;;;;;;;;;;;;;17.95;46.84;100123.63;4953986;28;98325;-66
2022/12/24 10:17:57;;;;;;;;;;;;;;;17.83;47.16;100130.53;4954643;28;100725;-68
2022/12/24 10:20:44;;;;;;;;;;;;;;;17.74;46.99;100137.91;4952061;28;124983;-69
2022/12/24 10:23:22;;;;;;;;;;;;;;;17.70;47.02;100131.50;4970401;28;98285;-66
2022/12/24 10:25:50;;;;;;;;;;;;;;;17.72;47.02;100131.16;4971349;28;98167;-69
2022/12/24 10:28:22;;;;;;;;;;;;;;;17.71;47.02;100140.47;4954544;28;99864;-69
2022/12/24 10:30:49;;;;;;;;;;;;;;;17.68;47.04;100141.91;4953982;28;100059;-67
2022/12/24 10:33:29;;;;;;;;;;;;;;;17.76;46.93;100140.31;4941003;28;99565;-70
2022/12/24 10:35:55;;;;;;;;;;;;;;;17.93;46.73;100150.41;4957202;28;117301;-67
2022/12/24 10:38:20;;;;;;;;;;;;;;;18.05;46.62;100143.16;4938570;28;128192;-69
2022/12/24 10:40:49;;;;;;;;;;;;;;;18.19;46.51;100145.69;4934867;28;128630;-66
2022/12/24 10:43:19;;;;;;;;;;;;;;;18.31;46.54;100154.00;4936484;28;117055;-69
2022/12/24 10:45:47;;;;;;;;;;;;;;;18.37;46.47;100160.88;4941216;28;98591;-67
2022/12/24 10:48:24;;;;;;;;;;;;;;;18.35;46.48;100168.59;4939755;28;99204;-67
2022/12/24 10:50:56;;;;;;;;;;;;;;;18.36;46.66;100170.19;4935357;28;98368;-67
2022/12/24 10:53:39;;;;;;;;;;;;;;;18.34;46.77;100177.88;4951271;28;99297;-67
2022/12/24 10:56:07;;;;;;;;;;;;;;;18.35;46.74;100182.22;4960653;28;99788;-69
2022/12/24 10:58:33;;;;;;;;;;;;;;;18.36;46.75;100175.66;4935864;28;99537;-67
2022/12/24 11:00:59;;;;;;;;;;;;;;;18.41;46.62;100185.56;4948314;28;99973;-69
2022/12/24 11:03:33;;;;;;;;;;;;;;;18.47;46.54;100192.47;4954004;28;108544;-67
2022/12/24 11:06:04;;;;;;;;;;;;;;;18.55;46.60;100190.81;4940922;28;98105;-69
2022/12/24 11:08:30;;;;;;;;;;;;;;;18.55;46.63;100188.06;4937837;28;99119;-67
2022/12/24 11:11:12;;;;;;;;;;;;;;;18.52;46.59;100197.75;4923047;28;100308;-69
2022/12/24 11:13:50;;;;;;;;;;;;;;;18.50;46.65;100193.72;4955927;28;98288;-70
2022/12/24 11:16:21;;;;;;;;;;;;;;;18.38;46.80;100194.41;4968387;28;99407;-67
2022/12/24 11:18:52;;;;;;;;;;;;;;;18.28;46.99;100201.03;4955010;28;99876;-67
2022/12/24 11:21:32;;;;;;;;;;;;;;;18.29;46.94;100199.09;4937465;28;103882;-67
2022/12/24 11:24:04;;;;;;;;;;;;;;;18.28;46.87;100208.41;4936314;28;109816;-69
2022/12/24 11:26:30;;;;;;;;;;;;;;;18.17;47.05;100210.69;4955015;28;98110;-69
2022/12/24 11:29:23;;;;;;;;;;;;;;;18.15;46.99;100218.38;4940132;28;99476;-67
2022/12/24 11:31:51;;;;;;;;;;;;;;;18.22;46.96;100218.69;4951583;28;98428;-69
2022/12/24 11:34:27;;;;;;;;;;;;;;;18.15;46.91;100216.44;4953963;28;98119;-67
2022/12/24 11:36:54;;;;;;;;;;;;;;;18.07;47.21;100221.91;4952029;28;98404;-69
2022/12/24 11:39:22;;;;;;;;;;;;;;;18.05;46.99;100222.25;4953003;28;105213;-66
2022/12/24 11:41:52;;;;;;;;;;;;;;;18.07;47.15;100213.72;4904322;28;99401;-67
2022/12/24 11:44:26;;;;;;;;;;;;;;;18.05;47.15;100218.72;4932121;28;118581;-67
2022/12/24 11:46:55;;;;;;;;;;;;;;;18.04;47.13;100231.56;4936812;28;98644;-67
2022/12/24 11:49:28;;;;;;;;;;;;;;;18.12;47.02;100232.66;4934996;28;98613;-67
2022/12/24 11:52:09;;;;;;;;;;;;;;;18.22;46.69;100229.59;4915089;28;98116;-67
2022/12/24 11:54:48;;;;;;;;;;;;;;;18.33;46.88;100238.25;4946987;28;99057;-69
2022/12/24 11:57:14;;;;;;;;;;;;;;;18.48;46.50;100240.44;4932610;28;98719;-69
2022/12/24 11:59:45;;;;;;;;;;;;;;;18.54;46.46;100239.13;4917190;28;98516;-69
2022/12/24 12:02:17;;;;;;;;;;;;;;;18.48;46.58;100248.63;4920905;28;101705;-68
2022/12/24 12:04:43;;;;;;;;;;;;;;;18.34;46.82;100250.75;4951014;28;98242;-67
2022/12/24 12:07:25;;;;;;;;;;;;;;;18.30;46.97;100264.22;4917150;28;100302;-67
2022/12/24 12:10:02;;;;;;;;;;;;;;;18.31;46.83;100259.56;4919547;28;98369;-67
2022/12/24 12:12:32;;;;;;;;;;;;;;;18.29;47.04;100261.84;4936123;28;98919;-67
2022/12/24 12:15:05;;;;;;;;;;;;;;;18.27;47.15;100258.63;4932495;28;97958;-69
2022/12/24 12:17:32;;;;;;;;;;;;;;;18.22;46.95;100254.13;4934861;28;124025;-67
2022/12/24 12:20:03;;;;;;;;;;;;;;;18.15;47.27;100262.81;4934384;28;109249;-68
2022/12/24 12:22:40;;;;;;;;;;;;;;;18.11;47.06;100253.66;4924571;28;98460;-69
2022/12/24 12:25:13;;;;;;;;;;;;;;;18.06;47.12;100259.28;4918302;28;123176;-68
2022/12/24 12:27:43;;;;;;;;;;;;;;;18.00;47.17;100270.69;4903340;28;122552;-69
2022/12/24 12:30:20;;;;;;;;;;;;;;;17.94;47.45;100261.88;4917708;28;123132;-70
2022/12/24 12:33:04;;;;;;;;;;;;;;;17.88;47.38;100263.16;4920218;28;98039;-67
2022/12/24 12:35:31;;;;;;;;;;;;;;;17.81;47.30;100277.28;4948869;28;98254;-69
2022/12/24 12:38:05;;;;;;;;;;;;;;;17.75;47.42;100273.09;4933959;28;100695;-69
2022/12/24 12:41:04;;;;;;;;;;;;;;;17.69;47.59;100270.81;4924086;28;102953;-67
2022/12/24 12:43:58;;;;;;;;;;;;;;;17.64;47.49;100266.31;4966822;28;98184;-68
2022/12/24 12:46:41;;;;;;;;;;;;;;;17.61;47.53;100270.50;4967465;28;98114;-68
2022/12/24 12:49:30;;;;;;;;;;;;;;;17.56;47.42;100276.06;4948993;28;123063;-68
2022/12/24 12:52:37;;;;;;;;;;;;;;;17.50;47.73;100271.91;4957543;28;99974;-67
2022/12/24 12:55:25;;;;;;;;;;;;;;;17.48;47.65;100281.53;4969194;28;99084;-68
2022/12/24 12:57:52;;;;;;;;;;;;;;;17.47;47.60;100282.66;4956018;28;116883;-66
2022/12/24 13:00:18;;;;;;;;;;;;;;;17.43;47.68;100274.31;4953733;28;109492;-68